Time;durP1;ratioP1;P1;durP2;ratioP2;P2;SDS_P1;SDS_P2;PMS_P1;PMS_P2;Temp;Humidity;BMP_temperature;BMP_pressure;BME280_temperature;BME280_humidity;BME280_pressure;Samples;Min_cycle;Max_cycle;Signal;HPM_P1;HPM_P2
2021/04/05 00:02:21;;;;;;;49.22;26.92;;;;;;;4.72;76.04;100056.72;4995978;28;20050;-73
2021/04/05 00:04:48;;;;;;;50.17;27.08;;;;;;;4.67;75.86;100039.31;5000438;28;20061;-74
2021/04/05 00:07:14;;;;;;;53.50;28.58;;;;;;;4.73;75.92;100061.09;5015045;28;20049;-75
2021/04/05 00:09:41;;;;;;;49.83;25.63;;;;;;;4.80;75.88;100048.47;5015140;28;20062;-73
2021/04/05 00:12:08;;;;;;;44.15;24.70;;;;;;;4.82;75.56;100030.78;5014096;28;20104;-72
2021/04/05 00:14:36;;;;;;;40.30;23.15;;;;;;;4.89;74.85;100042.84;5014974;28;20088;-74
2021/04/05 00:17:03;;;;;;;48.22;25.77;;;;;;;4.93;74.98;100027.72;5015309;28;20069;-75
2021/04/05 00:19:29;;;;;;;49.78;27.23;;;;;;;4.85;75.29;100024.53;5015138;28;20415;-74
2021/04/05 00:21:56;;;;;;;52.03;25.75;;;;;;;4.86;75.41;100013.03;5013645;28;20049;-74
2021/04/05 00:24:22;;;;;;;44.72;25.75;;;;;;;4.81;75.67;100004.41;5014877;28;20053;-74
2021/04/05 00:26:48;;;;;;;54.25;26.48;;;;;;;4.91;75.19;100012.84;5014573;28;20186;-74
2021/04/05 00:29:14;;;;;;;46.88;24.88;;;;;;;4.95;75.07;100007.34;5014887;28;20050;-74
2021/04/05 00:31:41;;;;;;;45.78;24.90;;;;;;;4.98;74.99;100014.31;5013730;28;20097;-74
2021/04/05 00:34:07;;;;;;;42.67;23.25;;;;;;;4.97;74.98;100012.59;5014671;28;20061;-74
2021/04/05 00:36:33;;;;;;;43.92;23.05;;;;;;;5.05;74.65;100009.66;5013598;28;20501;-75
2021/04/05 00:38:59;;;;;;;44.10;23.63;;;;;;;5.02;74.46;99997.41;5030057;28;20329;-74
2021/04/05 00:41:27;;;;;;;44.47;25.27;;;;;;;5.09;74.37;99998.00;5014440;28;20065;-74
2021/04/05 00:43:53;;;;;;;41.20;23.02;;;;;;;5.04;74.54;99992.91;5013552;28;20054;-74
2021/04/05 00:46:22;;;;;;;42.05;21.65;;;;;;;5.11;74.40;99988.22;5014592;28;20428;-75
2021/04/05 00:48:49;;;;;;;42.58;22.65;;;;;;;5.10;74.54;99971.50;5014816;28;20050;-74
2021/04/05 00:51:22;;;;;;;41.90;22.65;;;;;;;5.10;74.60;99970.63;5014161;28;20452;-74
2021/04/05 00:53:48;;;;;;;44.38;23.45;;;;;;;5.09;74.41;99955.66;5015140;28;20112;-74
2021/04/05 00:56:18;;;;;;;46.00;23.23;;;;;;;5.05;74.66;99947.00;5018532;28;20053;-74
2021/04/05 00:58:44;;;;;;;43.78;25.13;;;;;;;5.04;74.17;99940.00;5018339;28;20053;-73
2021/04/05 01:01:19;;;;;;;40.95;22.15;;;;;;;5.03;74.72;99941.78;5001355;28;20076;-72
2021/04/05 01:03:47;;;;;;;43.38;23.48;;;;;;;5.02;74.63;99940.06;5017357;28;20054;-74
2021/04/05 01:06:16;;;;;;;44.10;23.20;;;;;;;5.06;74.52;99939.94;5019003;28;20046;-73
2021/04/05 01:08:42;;;;;;;46.65;23.90;;;;;;;4.97;75.12;99938.53;5017299;28;20402;-73
2021/04/05 01:11:12;;;;;;;43.53;23.77;;;;;;;4.98;74.96;99925.25;5021157;28;20085;-74
2021/04/05 01:13:38;;;;;;;43.10;23.73;;;;;;;4.95;74.83;99932.47;5020931;28;20066;-73
2021/04/05 01:16:05;;;;;;;41.70;23.90;;;;;;;4.95;75.00;99935.94;5023547;28;20057;-73
2021/04/05 01:18:31;;;;;;;40.00;21.27;;;;;;;4.99;74.81;99921.69;5021552;28;20050;-73
2021/04/05 01:21:01;;;;;;;48.88;23.00;;;;;;;4.89;75.40;99900.03;5017897;28;20046;-73
2021/04/05 01:23:27;;;;;;;39.45;22.40;;;;;;;4.93;74.97;99895.47;5016750;28;20053;-73
2021/04/05 01:25:54;;;;;;;47.88;23.35;;;;;;;4.89;75.12;99893.88;5017862;28;20355;-73
2021/04/05 01:28:21;;;;;;;42.42;22.33;;;;;;;4.86;75.11;99886.09;5017244;28;20046;-73
2021/04/05 01:30:50;;;;;;;40.38;22.17;;;;;;;4.88;75.09;99863.06;5017847;28;20065;-73
2021/04/05 01:33:29;;;;;;;44.38;22.83;;;;;;;4.91;75.38;99865.59;5017834;28;20104;-74
2021/04/05 01:36:06;;;;;;;43.35;21.60;;;;;;;4.88;75.32;99865.72;5018039;28;20050;-73
2021/04/05 01:38:37;;;;;;;39.28;22.42;;;;;;;4.85;75.43;99861.41;5017773;28;20065;-73
2021/04/05 01:41:20;;;;;;;40.83;20.23;;;;;;;4.89;75.26;99863.03;5017802;28;20139;-73
2021/04/05 01:43:47;;;;;;;42.47;20.48;;;;;;;4.84;75.54;99842.97;5017911;28;20076;-73
2021/04/05 01:46:16;;;;;;;45.15;22.02;;;;;;;4.92;75.26;99864.69;5016906;28;20470;-73
2021/04/05 01:48:43;;;;;;;40.10;21.92;;;;;;;4.93;75.46;99854.94;5017358;28;20393;-73
2021/04/05 01:51:14;;;;;;;41.95;22.10;;;;;;;4.86;75.67;99857.00;5017190;28;20108;-73
2021/04/05 01:53:42;;;;;;;40.13;22.45;;;;;;;4.85;76.15;99844.72;5017126;28;20054;-73
2021/04/05 01:56:11;;;;;;;41.95;22.02;;;;;;;4.82;76.13;99832.47;5016479;28;20050;-73
2021/04/05 01:58:40;;;;;;;42.03;22.38;;;;;;;4.71;76.12;99821.47;5017579;28;20050;-73
2021/04/05 02:01:13;;;;;;;43.55;22.10;;;;;;;4.91;76.10;99843.56;5017120;28;20057;-73
2021/04/05 02:03:40;;;;;;;44.35;21.98;;;;;;;4.83;76.60;99828.91;5032448;28;20054;-73
2021/04/05 02:06:11;;;;;;;41.88;21.55;;;;;;;4.83;76.48;99826.25;5015945;28;20054;-73
2021/04/05 02:08:38;;;;;;;40.40;20.85;;;;;;;4.82;76.55;99834.25;5017273;28;20062;-73
2021/04/05 02:11:18;;;;;;;45.05;22.98;;;;;;;4.82;76.97;99821.03;5016992;28;20049;-73
2021/04/05 02:13:50;;;;;;;37.88;20.27;;;;;;;4.74;76.98;99787.84;5015703;28;20049;-73
2021/04/05 02:16:18;;;;;;;38.67;22.40;;;;;;;4.77;77.16;99786.84;5016738;28;20515;-74
2021/04/05 02:18:45;;;;;;;40.67;21.25;;;;;;;4.80;77.16;99780.56;5015461;28;20046;-73
2021/04/05 02:21:12;;;;;;;47.55;20.92;;;;;;;4.75;77.01;99781.63;5016956;28;20496;-73
2021/04/05 02:23:40;;;;;;;50.92;22.23;;;;;;;4.81;76.79;99779.66;5016951;28;20356;-73
2021/04/05 02:26:10;;;;;;;49.03;22.35;;;;;;;4.79;76.73;99779.69;5017188;28;20061;-74
2021/04/05 02:28:40;;;;;;;40.72;21.83;;;;;;;4.78;77.23;99774.50;5016669;28;20046;-73
2021/04/05 02:31:09;;;;;;;44.30;22.47;;;;;;;4.77;76.99;99784.22;5016625;28;20124;-74
2021/04/05 02:33:39;;;;;;;42.42;22.65;;;;;;;4.71;77.26;99760.69;5016820;28;20053;-73
2021/04/05 02:36:12;;;;;;;38.78;23.55;;;;;;;4.69;77.36;99739.59;5016777;28;20057;-73
2021/04/05 02:38:42;;;;;;;41.17;23.02;;;;;;;4.72;77.47;99739.47;5016610;28;20384;-73
2021/04/05 02:41:10;;;;;;;42.80;23.05;;;;;;;4.71;77.42;99731.59;5016786;28;20077;-74
2021/04/05 02:43:37;;;;;;;43.67;22.08;;;;;;;4.69;77.55;99728.16;5016386;28;20458;-73
2021/04/05 02:46:05;;;;;;;40.33;22.05;;;;;;;4.69;77.50;99731.66;5015689;28;20058;-74
2021/04/05 02:48:35;;;;;;;40.97;20.90;;;;;;;4.60;77.65;99714.44;5016398;28;20064;-74
2021/04/05 02:51:05;;;;;;;45.33;22.13;;;;;;;4.63;77.50;99697.56;5016331;28;20087;-73
2021/04/05 02:53:33;;;;;;;46.92;22.08;;;;;;;4.60;77.45;99703.88;4999287;28;20054;-74
2021/04/05 02:56:05;;;;;;;44.38;21.13;;;;;;;4.59;77.59;99693.34;5016408;28;20053;-74
2021/04/05 02:58:33;;;;;;;51.17;23.85;;;;;;;4.60;77.81;99685.34;5016644;28;20089;-74
2021/04/05 03:01:01;;;;;;;40.30;21.98;;;;;;;4.55;78.02;99678.53;5016552;28;20056;-73
2021/04/05 03:03:28;;;;;;;40.42;22.08;;;;;;;4.49;77.77;99672.59;5015974;28;20053;-74
2021/04/05 03:05:55;;;;;;;44.78;22.05;;;;;;;4.53;77.77;99690.97;5016188;28;20133;-73
2021/04/05 03:08:24;;;;;;;40.13;21.40;;;;;;;4.54;77.78;99692.69;5016474;28;20046;-73
2021/04/05 03:10:55;;;;;;;55.45;25.52;;;;;;;4.51;77.88;99680.44;5016827;28;20058;-73
2021/04/05 03:13:30;;;;;;;39.40;21.23;;;;;;;4.46;77.77;99683.31;5014975;28;20054;-73
2021/04/05 03:15:57;;;;;;;43.78;21.55;;;;;;;4.48;78.11;99684.09;5015090;28;20053;-73
2021/04/05 03:18:24;;;;;;;46.10;20.77;;;;;;;4.46;78.24;99664.81;5015552;28;20121;-73
2021/04/05 03:20:52;;;;;;;41.38;20.85;;;;;;;4.43;78.21;99664.94;5015006;28;20065;-73
2021/04/05 03:23:21;;;;;;;39.50;20.23;;;;;;;4.42;78.36;99668.50;5015934;28;20379;-73
2021/04/05 03:25:48;;;;;;;39.90;20.13;;;;;;;4.45;78.65;99700.09;4998256;28;20061;-73
2021/04/05 03:28:14;;;;;;;38.65;21.08;;;;;;;4.46;78.30;99680.66;5014480;28;20053;-73
2021/04/05 03:30:45;;;;;;;37.90;20.40;;;;;;;4.51;78.39;99684.91;4998420;28;20073;-73
2021/04/05 03:33:17;;;;;;;38.90;18.83;;;;;;;4.60;77.98;99682.72;5015533;28;20439;-72
2021/04/05 03:35:47;;;;;;;37.00;18.48;;;;;;;4.56;78.61;99669.66;5015841;28;20053;-72
2021/04/05 03:38:15;;;;;;;38.65;18.95;;;;;;;4.60;78.43;99658.06;5015415;28;20054;-72
2021/04/05 03:40:44;;;;;;;39.22;17.85;;;;;;;4.62;77.99;99664.13;5015518;28;20108;-72
2021/04/05 03:43:28;;;;;;;44.28;20.55;;;;;;;4.65;78.15;99652.56;5015666;28;20124;-72
2021/04/05 03:45:58;;;;;;;36.10;16.75;;;;;;;4.64;78.00;99640.28;5015653;28;20416;-72
2021/04/05 03:48:55;;;;;;;37.72;16.38;;;;;;;4.73;78.16;99648.66;5014243;28;20129;-73
2021/04/05 03:51:49;;;;;;;32.08;17.02;;;;;;;4.75;77.85;99651.22;5013105;28;20072;-72
2021/04/05 03:54:19;;;;;;;34.38;17.42;;;;;;;4.82;77.71;99649.16;5018401;28;20112;-71
2021/04/05 03:56:51;;;;;;;38.05;17.98;;;;;;;4.83;78.15;99638.50;5015472;28;20050;-73
2021/04/05 03:59:43;;;;;;;36.47;16.45;;;;;;;4.82;78.25;99628.88;5015664;28;20046;-74
2021/04/05 04:02:32;;;;;;;37.25;17.30;;;;;;;4.80;78.76;99606.06;5015310;28;20053;-72
2021/04/05 04:07:51;;;;;;;37.35;15.98;;;;;;;4.79;79.12;99617.56;5015388;28;20506;-73
2021/04/05 04:10:19;;;;;;;38.80;15.88;;;;;;;4.76;79.08;99592.97;5015432;28;20054;-73
2021/04/05 04:12:48;;;;;;;36.75;14.88;;;;;;;4.79;79.67;99599.91;5015268;28;20050;-73
2021/04/05 04:15:15;;;;;;;40.72;16.20;;;;;;;4.85;79.37;99586.41;5017126;28;20053;-73
2021/04/05 04:17:44;;;;;;;32.97;16.83;;;;;;;4.83;79.53;99582.13;5016864;28;20383;-72
2021/04/05 04:20:15;;;;;;;34.88;15.82;;;;;;;4.84;79.69;99582.06;5016622;28;20053;-73
2021/04/05 04:22:43;;;;;;;29.83;14.00;;;;;;;4.87;79.82;99596.94;5018184;28;20053;-73
2021/04/05 04:25:15;;;;;;;43.95;16.77;;;;;;;4.89;80.07;99576.53;5016662;28;20058;-72
2021/04/05 04:27:45;;;;;;;37.03;16.50;;;;;;;4.78;80.36;99594.72;5015111;28;20053;-72
2021/04/05 04:30:32;;;;;;;37.72;15.65;;;;;;;4.70;80.72;99563.34;5000804;28;20057;-72
2021/04/05 04:33:03;;;;;;;37.33;16.48;;;;;;;4.69;81.33;99572.19;5019116;28;20511;-72
2021/04/05 04:35:29;;;;;;;;;;;;;;;4.75;80.93;99575.41;5019750;28;20052;-72
2021/04/05 04:37:57;;;;;;;36.08;16.17;;;;;;;4.71;81.21;99555.34;5019073;28;19928;-72
2021/04/05 04:40:25;;;;;;;36.42;17.00;;;;;;;4.73;81.68;99556.13;5035898;28;20054;-72
2021/04/05 04:42:54;;;;;;;42.08;17.15;;;;;;;4.63;82.06;99541.59;5019804;28;20045;-72
2021/04/05 04:45:20;;;;;;;37.92;17.60;;;;;;;4.58;82.75;99546.25;5006343;28;20143;-72
2021/04/05 04:47:52;;;;;;;36.67;17.65;;;;;;;4.54;82.50;99527.06;5020028;28;20076;-72
2021/04/05 04:50:20;;;;;;;36.55;17.85;;;;;;;4.69;82.51;99548.41;5018124;28;20073;-71
2021/04/05 04:52:47;;;;;;;34.63;19.00;;;;;;;4.65;82.90;99537.13;5018687;28;20058;-72
2021/04/05 04:55:17;;;;;;;36.13;19.00;;;;;;;4.60;83.04;99550.56;5020461;28;20054;-72
2021/04/05 04:57:44;;;;;;;41.88;19.70;;;;;;;4.51;83.84;99542.19;5019503;28;20061;-73
2021/04/05 05:00:11;;;;;;;47.53;21.95;;;;;;;4.54;83.74;99529.69;5017739;28;20056;-73
2021/04/05 05:02:41;;;;;;;41.45;19.58;;;;;;;4.62;84.21;99538.13;5001072;28;20049;-73
2021/04/05 05:05:10;;;;;;;39.15;19.73;;;;;;;4.71;84.04;99542.13;5018975;28;20054;-73
2021/04/05 05:07:38;;;;;;;39.60;21.05;;;;;;;4.66;84.29;99544.13;5018458;28;20072;-73
2021/04/05 05:10:10;;;;;;;40.97;20.63;;;;;;;4.74;84.22;99538.47;5018533;28;20148;-73
2021/04/05 05:12:40;;;;;;;43.25;20.83;;;;;;;4.77;84.09;99527.75;5018339;28;20321;-73
2021/04/05 05:15:08;;;;;;;;;;;;;;;4.71;84.34;99526.25;5018520;28;20058;-72
2021/04/05 05:17:47;;;;;;;44.58;21.13;;;;;;;4.68;84.72;99530.84;5017094;28;19929;-73
2021/04/05 05:20:15;;;;;;;45.10;22.23;;;;;;;4.72;84.87;99522.69;5016777;28;20184;-72
2021/04/05 05:22:50;;;;;;;40.72;20.20;;;;;;;4.68;84.88;99510.53;5018312;28;20053;-72
2021/04/05 05:25:20;;;;;;;43.38;22.80;;;;;;;4.67;85.69;99508.81;5017914;28;20362;-73
2021/04/05 05:28:01;;;;;;;41.33;22.50;;;;;;;4.69;85.55;99511.41;5017898;28;20073;-73
2021/04/05 05:30:27;;;;;;;;;;;;;;;4.70;85.59;99519.25;5018445;28;20136;-73
2021/04/05 05:32:55;;;;;;;39.45;22.00;;;;;;;4.69;85.98;99509.59;5017763;28;19925;-73
2021/04/05 05:35:23;;;;;;;44.33;22.65;;;;;;;4.67;86.16;99514.09;5017525;28;20348;-73
2021/04/05 05:37:50;;;;;;;53.65;23.73;;;;;;;4.74;86.30;99497.03;5017704;28;20080;-73
2021/04/05 05:40:23;;;;;;;48.10;23.83;;;;;;;4.77;86.29;99509.25;5017821;28;20046;-73
2021/04/05 05:43:07;;;;;;;46.63;22.75;;;;;;;4.74;86.31;99499.66;5017548;28;20333;-73
2021/04/05 05:45:55;;;;;;;46.20;23.05;;;;;;;4.76;86.05;99495.16;5017475;28;20057;-72
2021/04/05 05:48:24;;;;;;;52.22;24.88;;;;;;;4.78;86.51;99489.81;5016272;28;20351;-72
2021/04/05 05:51:19;;;;;;;47.28;24.15;;;;;;;4.73;86.27;99473.28;5017474;28;20359;-73
2021/04/05 05:54:12;;;;;;;50.92;24.45;;;;;;;4.85;86.37;99485.09;5017563;28;20056;-73
2021/04/05 05:56:51;;;;;;;46.65;23.50;;;;;;;4.81;86.39;99483.50;5017488;28;20050;-73
2021/04/05 05:59:35;;;;;;;46.72;23.85;;;;;;;4.84;86.83;99491.28;5017454;28;20058;-73
2021/04/05 06:02:06;;;;;;;58.65;23.85;;;;;;;4.80;86.93;99492.38;5017692;28;20475;-74
2021/04/05 06:04:51;;;;;;;50.22;23.30;;;;;;;4.86;86.94;99487.63;5018500;28;20432;-73
2021/04/05 06:07:45;;;;;;;53.05;24.45;;;;;;;4.91;86.71;99470.69;5018516;28;20061;-72
2021/04/05 06:10:40;;;;;;;52.67;24.60;;;;;;;4.92;86.97;99475.06;5018258;28;20137;-73
2021/04/05 06:13:23;;;;;;;51.00;23.27;;;;;;;5.00;87.29;99457.88;5017591;28;20365;-72
2021/04/05 06:16:01;;;;;;;52.10;24.85;;;;;;;5.06;87.08;99472.59;5017722;28;20108;-72
2021/04/05 06:18:39;;;;;;;55.17;23.83;;;;;;;4.96;87.47;99456.31;5018191;28;20050;-72
2021/04/05 06:21:25;;;;;;;59.30;26.25;;;;;;;5.01;87.44;99462.25;5016856;28;20129;-72
2021/04/05 06:23:56;;;;;;;48.22;23.40;;;;;;;5.00;87.78;99463.19;5007554;28;20096;-74
2021/04/05 06:26:34;;;;;;;51.33;24.80;;;;;;;5.06;87.42;99455.88;5017453;28;20060;-72
2021/04/05 06:29:18;;;;;;;55.00;25.75;;;;;;;5.07;87.86;99447.84;5016817;28;20128;-71
2021/04/05 06:32:23;;;;;;;46.30;23.77;;;;;;;5.10;88.46;99453.00;5017067;28;20058;-72
2021/04/05 06:35:11;;;;;;;51.97;24.02;;;;;;;4.99;89.52;99455.31;5011760;28;20138;-72
2021/04/05 06:37:48;;;;;;;48.97;25.13;;;;;;;5.00;89.66;99454.38;5010511;28;20057;-74
2021/04/05 06:40:21;;;;;;;55.65;25.35;;;;;;;5.05;90.00;99435.66;5018541;28;20065;-71
2021/04/05 06:43:31;;;;;;;60.88;26.10;;;;;;;5.10;89.73;99437.13;5018713;28;20505;-67
2021/04/05 06:46:20;;;;;;;52.13;25.58;;;;;;;5.19;89.60;99445.53;5017420;28;20046;-69
2021/04/05 06:48:59;;;;;;;52.72;24.40;;;;;;;5.27;89.17;99438.06;5039254;28;20144;-68
2021/04/05 06:51:45;;;;;;;51.13;23.05;;;;;;;5.26;88.63;99425.75;5036089;28;20058;-68
2021/04/05 06:54:45;;;;;;;43.13;22.58;;;;;;;5.25;88.91;99417.00;4997696;28;20450;-71
2021/04/05 06:57:42;;;;;;;43.45;23.35;;;;;;;5.30;88.52;99419.41;4997325;28;20054;-73
2021/04/05 07:00:15;;;;;;;49.13;23.63;;;;;;;5.39;88.57;99426.84;4993584;28;20122;-77
2021/04/05 07:03:09;;;;;;;55.38;23.30;;;;;;;5.43;88.16;99422.25;5019742;28;20407;-73
2021/04/05 07:05:49;;;;;;;62.35;24.73;;;;;;;5.40;88.19;99419.78;5021348;28;20085;-73
2021/04/05 07:08:38;;;;;;;47.58;23.42;;;;;;;5.41;87.84;99413.53;5034901;28;20049;-74
2021/04/05 07:11:22;;;;;;;48.58;20.92;;;;;;;5.53;87.70;99404.09;5018961;28;20132;-73
2021/04/05 07:13:58;;;;;;;46.85;22.33;;;;;;;5.53;87.70;99399.69;5022609;28;20053;-73
2021/04/05 07:16:46;;;;;;;54.55;25.50;;;;;;;5.56;87.42;99386.28;5019637;28;20061;-71
2021/04/05 07:19:34;;;;;;;45.63;23.80;;;;;;;5.62;87.12;99385.09;5021433;28;20045;-74
2021/04/05 07:22:19;;;;;;;43.70;22.58;;;;;;;5.55;87.50;99379.28;5020659;28;20054;-71
2021/04/05 07:24:54;;;;;;;50.38;23.65;;;;;;;5.63;87.62;99383.31;5017795;28;20124;-72
2021/04/05 07:27:31;;;;;;;48.38;21.98;;;;;;;5.58;87.12;99384.38;5016607;28;20077;-74
2021/04/05 07:30:15;;;;;;;44.28;22.30;;;;;;;5.62;87.22;99378.94;5018023;28;20103;-72
2021/04/05 07:33:01;;;;;;;43.40;22.55;;;;;;;5.74;86.87;99382.72;5017419;28;20058;-73
2021/04/05 07:35:37;;;;;;;48.58;23.40;;;;;;;5.76;86.69;99362.31;5024898;28;20081;-74
2021/04/05 07:38:15;;;;;;;39.50;20.48;;;;;;;5.84;86.97;99381.31;5017293;28;20053;-75
2021/04/05 07:40:52;;;;;;;44.50;22.65;;;;;;;5.79;86.99;99360.38;5029889;28;20049;-73
2021/04/05 07:43:46;;;;;;;48.70;23.73;;;;;;;5.87;86.72;99365.25;5002794;28;20317;-73
2021/04/05 07:46:18;;;;;;;52.17;23.35;;;;;;;5.89;86.58;99352.75;5008580;28;20112;-73
2021/04/05 07:49:11;;;;;;;35.47;22.65;;;;;;;5.98;86.12;99343.47;5019268;28;20048;-71
2021/04/05 07:51:47;;;;;;;39.83;21.65;;;;;;;5.98;86.16;99338.16;5011949;28;20054;-73
2021/04/05 07:54:15;;;;;;;42.45;21.27;;;;;;;6.02;86.08;99339.75;5018185;28;20058;-75
2021/04/05 07:56:50;;;;;;;51.17;24.33;;;;;;;6.08;85.92;99342.06;5052255;28;20045;-75
2021/04/05 08:00:00;;;;;;;38.03;20.52;;;;;;;6.17;85.38;99342.47;5036525;28;20050;-73
2021/04/05 08:03:06;;;;;;;39.60;19.27;;;;;;;6.22;85.27;99354.53;5028693;28;20337;-74
2021/04/05 08:05:47;;;;;;;43.83;21.45;;;;;;;6.21;85.33;99357.28;5034527;28;20046;-75
2021/04/05 08:08:27;;;;;;;40.65;19.70;;;;;;;6.25;84.88;99364.09;5018443;28;20053;-73
2021/04/05 08:11:28;;;;;;;40.35;20.73;;;;;;;6.16;85.90;99356.66;5015883;28;20085;-77
2021/04/05 08:14:25;;;;;;;43.35;22.90;;;;;;;6.08;89.16;99375.63;5020549;28;20076;-76
2021/04/05 08:17:00;;;;;;;47.50;24.02;;;;;;;5.96;90.88;99371.84;5018769;28;20524;-79
2021/04/05 08:19:55;;;;;;;46.28;23.63;;;;;;;5.78;92.33;99368.41;5020057;28;20058;-74
2021/04/05 08:22:34;;;;;;;46.47;25.13;;;;;;;5.70;94.17;99376.75;5016875;28;20057;-74
2021/04/05 08:25:23;;;;;;;41.63;21.80;;;;;;;5.58;93.95;99389.69;5018177;28;20049;-77
2021/04/05 08:28:04;;;;;;;40.72;20.67;;;;;;;5.44;95.98;99424.84;5018740;28;20053;-77
2021/04/05 08:30:45;;;;;;;31.75;14.45;;;;;;;5.16;94.24;99435.97;5020179;28;20046;-75
2021/04/05 08:33:47;;;;;;;23.48;10.18;;;;;;;4.82;93.37;99464.06;5018582;28;20074;-80
2021/04/05 08:36:38;;;;;;;13.05;5.88;;;;;;;4.40;93.06;99477.47;4956839;28;20102;-73
2021/04/05 08:39:17;;;;;;;5.88;2.83;;;;;;;4.04;92.73;99488.78;5030242;28;20042;-78
2021/04/05 08:42:05;;;;;;;9.93;3.90;;;;;;;3.97;95.98;99487.34;5016627;28;20053;-78
2021/04/05 08:44:51;;;;;;;14.23;3.90;;;;;;;3.84;96.01;99469.41;5011272;28;20046;-77
2021/04/05 08:47:29;;;;;;;12.32;3.30;;;;;;;3.82;95.24;99497.69;5015518;28;20058;-71
2021/04/05 08:50:02;;;;;;;9.60;2.70;;;;;;;3.66;94.30;99493.03;5014736;28;20053;-76
2021/04/05 08:52:36;;;;;;;8.27;2.20;;;;;;;3.67;95.04;99509.75;5015286;28;20060;-75
2021/04/05 08:55:04;;;;;;;7.10;2.60;;;;;;;3.57;95.48;99518.97;5014978;28;20120;-75
2021/04/05 08:57:38;;;;;;;8.77;2.30;;;;;;;3.55;96.37;99516.41;5014552;28;20054;-75
2021/04/05 09:00:08;;;;;;;12.82;2.25;;;;;;;3.53;96.19;99516.47;5014643;28;20050;-72
2021/04/05 09:02:43;;;;;;;7.65;2.35;;;;;;;3.56;96.99;99514.63;5014690;28;20050;-72
2021/04/05 09:05:14;;;;;;;8.00;2.03;;;;;;;3.57;96.50;99517.19;5013833;28;20045;-71
2021/04/05 09:08:09;;;;;;;9.18;1.85;;;;;;;3.61;96.63;99521.44;5014114;28;20054;-71
2021/04/05 09:10:41;;;;;;;8.02;2.13;;;;;;;3.66;98.46;99524.72;5014957;28;20056;-73
2021/04/05 09:13:13;;;;;;;8.88;1.98;;;;;;;3.64;97.72;99531.84;5014154;28;20057;-76
2021/04/05 09:16:19;;;;;;;7.80;2.05;;;;;;;3.60;97.87;99546.06;5018082;28;20077;-72
2021/04/05 09:18:55;;;;;;;7.38;1.70;;;;;;;3.47;97.60;99550.16;5017263;28;20076;-75
2021/04/05 09:21:24;;;;;;;6.38;1.67;;;;;;;3.43;96.95;99553.84;5026059;28;20068;-73
2021/04/05 09:24:16;;;;;;;3.67;1.52;;;;;;;3.35;96.74;99575.25;5019722;28;20419;-76
2021/04/05 09:26:57;;;;;;;7.28;1.70;;;;;;;3.08;94.35;99594.78;5014492;28;20104;-73
2021/04/05 09:29:42;;;;;;;4.80;1.08;;;;;;;2.92;93.47;99598.91;5017351;28;20045;-75
2021/04/05 09:32:47;;;;;;;3.88;1.58;;;;;;;2.81;93.91;99601.97;5014849;28;20054;-73
2021/04/05 09:36:02;;;;;;;6.88;1.33;;;;;;;2.71;92.17;99612.84;5016319;28;20056;-72
2021/04/05 09:38:53;;;;;;;5.68;1.25;;;;;;;2.68;93.01;99615.59;4999494;28;20078;-73
2021/04/05 09:41:58;;;;;;;8.38;1.25;;;;;;;2.77;94.53;99626.72;5018236;28;20052;-70
2021/04/05 09:45:06;;;;;;;5.57;1.83;;;;;;;2.74;94.54;99630.34;5015907;28;20046;-74
2021/04/05 09:48:03;;;;;;;7.30;1.63;;;;;;;2.75;94.35;99639.06;5016996;28;20050;-74
2021/04/05 09:50:54;;;;;;;11.63;2.00;;;;;;;2.61;94.33;99647.50;5009528;28;20058;-72
2021/04/05 09:53:23;;;;;;;;;;;;;;;2.63;95.61;99654.44;5018240;28;20103;-71
2021/04/05 09:55:54;;;;;;;8.48;2.20;;;;;;;2.41;94.24;99663.09;5018247;28;19921;-73
2021/04/05 09:58:24;;;;;;;9.98;1.95;;;;;;;2.28;93.41;99667.06;5017515;28;20054;-72
2021/04/05 10:00:56;;;;;;;12.73;2.07;;;;;;;2.34;93.99;99681.81;5017971;28;20149;-71
2021/04/05 10:03:23;;;;;;;12.30;1.75;;;;;;;2.36;93.48;99679.97;5017709;28;20127;-70
2021/04/05 10:05:51;;;;;;;7.85;1.65;;;;;;;2.30;94.26;99676.63;5017852;28;20103;-71
2021/04/05 10:08:27;;;;;;;13.63;2.20;;;;;;;2.39;93.42;99690.44;5018736;28;20104;-75
2021/04/05 10:10:56;;;;;;;14.75;2.88;;;;;;;2.30;93.29;99689.81;4997813;28;20069;-73
2021/04/05 10:13:24;;;;;;;13.80;2.50;;;;;;;2.33;93.64;99702.00;4999323;28;20057;-69
2021/04/05 10:16:11;;;;;;;16.92;2.75;;;;;;;2.24;93.34;99703.19;5004906;28;20375;-73
2021/04/05 10:18:47;;;;;;;10.52;2.33;;;;;;;2.22;91.99;99688.38;5016844;28;20042;-72
2021/04/05 10:21:20;;;;;;;14.70;2.90;;;;;;;2.21;92.64;99703.31;5018852;28;20049;-72
2021/04/05 10:23:48;;;;;;;13.38;2.83;;;;;;;2.27;92.73;99712.75;5020239;28;20041;-74
2021/04/05 10:26:17;;;;;;;15.05;3.25;;;;;;;2.37;94.89;99715.94;5024370;28;20100;-74
2021/04/05 10:28:46;;;;;;;20.55;4.00;;;;;;;2.23;92.83;99706.72;5024439;28;20085;-70
2021/04/05 10:31:21;;;;;;;20.42;3.83;;;;;;;2.30;90.99;99728.47;5017882;28;20045;-72
2021/04/05 10:33:56;;;;;;;17.25;3.10;;;;;;;2.24;88.68;99734.78;5019058;28;20053;-71
2021/04/05 10:36:24;;;;;;;20.77;3.13;;;;;;;2.09;87.98;99741.44;5019366;28;20057;-71
2021/04/05 10:38:52;;;;;;;13.88;2.78;;;;;;;1.95;91.14;99760.28;5020864;28;20050;-72
2021/04/05 10:41:21;;;;;;;9.60;1.67;;;;;;;1.43;89.63;99778.53;5021622;28;20054;-71
2021/04/05 10:43:51;;;;;;;5.70;1.13;;;;;;;1.13;90.41;99763.59;5020928;28;20104;-71
2021/04/05 10:46:33;;;;;;;2.55;1.20;;;;;;;1.28;93.08;99772.84;5020929;28;20136;-73
2021/04/05 10:49:12;;;;;;;7.13;1.42;;;;;;;1.32;88.30;99777.06;5019883;28;20042;-71
2021/04/05 10:51:51;;;;;;;16.00;2.70;;;;;;;1.48;90.81;99766.97;5016381;28;20081;-71
2021/04/05 10:54:39;;;;;;;11.93;2.03;;;;;;;1.63;89.50;99773.56;5017537;28;20050;-70
2021/04/05 10:57:10;;;;;;;6.28;1.63;;;;;;;1.77;89.02;99774.91;5017223;28;20061;-70
2021/04/05 10:59:52;;;;;;;16.92;3.58;;;;;;;1.88;88.00;99764.03;5019085;28;20050;-70
2021/04/05 11:02:22;;;;;;;8.05;2.15;;;;;;;1.83;87.26;99750.16;5018902;28;20054;-70
2021/04/05 11:05:04;;;;;;;16.65;2.70;;;;;;;1.84;87.39;99770.28;5018450;28;20046;-70
2021/04/05 11:07:32;;;;;;;6.18;1.60;;;;;;;1.94;85.15;99773.50;5017376;28;20446;-69
2021/04/05 11:10:01;;;;;;;10.77;1.92;;;;;;;2.04;86.92;99774.94;5017170;28;20112;-70
2021/04/05 11:12:42;;;;;;;17.15;2.75;;;;;;;2.19;85.39;99778.84;5018352;28;20054;-69
2021/04/05 11:15:12;;;;;;;14.75;2.17;;;;;;;2.21;85.79;99782.28;5017473;28;20062;-70
2021/04/05 11:17:45;;;;;;;7.75;2.00;;;;;;;2.24;84.41;99782.19;5017504;28;20408;-70
2021/04/05 11:20:14;;;;;;;7.47;1.90;;;;;;;2.19;85.32;99788.53;5017028;28;20137;-70
2021/04/05 11:22:42;;;;;;;9.10;2.38;;;;;;;2.14;86.29;99797.41;5017177;28;20077;-70
2021/04/05 11:25:23;;;;;;;8.57;1.85;;;;;;;1.82;87.39;99806.31;5017750;28;20088;-70
2021/04/05 11:27:55;;;;;;;14.73;2.70;;;;;;;1.81;90.46;99813.38;5017549;28;20355;-69
2021/04/05 11:30:24;;;;;;;10.15;2.28;;;;;;;1.63;90.46;99817.41;5016760;28;20062;-70
2021/04/05 11:32:52;;;;;;;7.38;2.10;;;;;;;1.37;89.25;99832.19;5016414;28;20065;-72
2021/04/05 11:35:30;;;;;;;6.30;1.98;;;;;;;1.35;90.81;99823.47;5016347;28;20072;-71
2021/04/05 11:38:01;;;;;;;4.90;1.58;;;;;;;1.38;88.42;99827.78;5016466;28;20057;-69
2021/04/05 11:40:29;;;;;;;3.50;1.40;;;;;;;1.60;90.88;99828.91;5015486;28;20060;-72
2021/04/05 11:42:57;;;;;;;12.27;2.30;;;;;;;2.00;91.96;99828.59;5017184;28;20116;-70
2021/04/05 11:45:30;;;;;;;11.65;2.25;;;;;;;2.30;90.60;99823.28;5016167;28;20063;-69
2021/04/05 11:47:59;;;;;;;7.78;1.63;;;;;;;2.43;84.05;99816.69;5016635;28;20060;-72
2021/04/05 11:50:27;;;;;;;5.97;1.77;;;;;;;2.47;84.87;99809.56;5016959;28;20459;-70
2021/04/05 11:52:58;;;;;;;8.15;1.73;;;;;;;2.44;80.75;99814.91;5016783;28;20440;-70
2021/04/05 11:55:30;;;;;;;8.63;1.58;;;;;;;2.62;77.96;99809.94;5015384;28;20050;-69
2021/04/05 11:58:05;;;;;;;;;;;;;;;2.67;74.12;99810.66;5017198;28;20538;-70
2021/04/05 12:00:43;;;;;;;6.18;1.20;;;;;;;2.74;70.73;99806.91;5016338;28;20212;-70
2021/04/05 12:03:26;;;;;;;7.20;2.03;;;;;;;2.81;73.50;99812.81;5015924;28;20144;-71
2021/04/05 12:06:21;;;;;;;7.60;1.65;;;;;;;2.76;70.86;99814.72;5017796;28;20057;-71
2021/04/05 12:08:53;;;;;;;8.93;1.60;;;;;;;2.70;67.41;99800.00;5017037;28;20053;-69
2021/04/05 12:11:25;;;;;;;11.23;2.08;;;;;;;2.91;69.90;99813.34;5017338;28;20065;-71